Time;durP1;ratioP1;P1;durP2;ratioP2;P2;SDS_P1;SDS_P2;PMS_P1;PMS_P2;Temp;Humidity;BMP_temperature;BMP_pressure;BME280_temperature;BME280_humidity;BME280_pressure;Samples;Min_cycle;Max_cycle;Signal;HPM_P1;HPM_P2
2021/07/26 15:04:47;;;;;;;7.03;5.25;;;25.00;99.90;;;;;;5080614;28;20546;-77
2021/07/26 15:07:14;;;;;;;4.90;4.50;;;24.30;99.90;;;;;;5058935;28;20665;-76
2021/07/26 15:09:41;;;;;;;6.15;5.00;;;23.90;99.90;;;;;;5063891;28;20225;-75
2021/07/26 15:12:08;;;;;;;8.13;6.75;;;23.70;99.90;;;;;;5051167;28;20197;-74
2021/07/26 15:14:36;;;;;;;7.78;6.88;;;23.60;99.90;;;;;;5059114;28;20209;-74
2021/07/26 15:17:03;;;;;;;9.25;7.70;;;23.50;99.90;;;;;;5057644;28;20189;-75
2021/07/26 15:19:30;;;;;;;8.15;7.35;;;23.40;99.90;;;;;;5058859;28;20618;-74
2021/07/26 15:21:59;;;;;;;8.68;6.88;;;23.50;99.90;;;;;;5052685;28;20201;-74
2021/07/26 15:24:26;;;;;;;9.85;7.88;;;23.50;99.90;;;;;;5056715;28;20231;-75
2021/07/26 15:26:53;;;;;;;7.47;6.82;;;23.50;99.90;;;;;;5061677;28;20511;-73
2021/07/26 15:29:21;;;;;;;11.20;7.65;;;23.60;99.90;;;;;;5059528;28;20193;-76
2021/07/26 15:31:48;;;;;;;8.85;6.80;;;23.60;99.90;;;;;;5059957;28;20237;-77
2021/07/26 15:34:15;;;;;;;7.70;7.00;;;23.60;99.90;;;;;;5058239;28;20288;-77
2021/07/26 15:36:42;;;;;;;7.15;6.43;;;23.80;99.90;;;;;;5055500;28;20229;-75
2021/07/26 15:39:10;;;;;;;13.98;8.57;;;23.90;99.90;;;;;;5060537;28;20281;-75
2021/07/26 15:41:37;;;;;;;11.77;9.10;;;23.90;99.90;;;;;;5060167;28;20232;-75
2021/07/26 15:44:05;;;;;;;11.35;8.65;;;23.80;99.90;;;;;;5062069;28;20304;-75
2021/07/26 15:46:32;;;;;;;8.48;7.68;;;23.70;99.90;;;;;;5086335;28;20754;-75
2021/07/26 15:48:59;;;;;;;9.35;8.23;;;23.60;99.90;;;;;;5059341;28;20665;-77
2021/07/26 15:51:26;;;;;;;9.48;7.90;;;23.60;99.90;;;;;;5059765;28;20310;-78
2021/07/26 15:53:54;;;;;;;8.40;6.78;;;23.50;99.90;;;;;;5052866;28;20210;-77
2021/07/26 15:56:23;;;;;;;7.28;6.30;;;23.40;99.90;;;;;;5057765;28;20213;-74
2021/07/26 15:58:50;;;;;;;9.27;6.55;;;23.40;99.90;;;;;;5056321;28;20197;-77
2021/07/26 16:01:17;;;;;;;7.55;6.85;;;23.40;99.90;;;;;;5056425;28;20630;-75
2021/07/26 16:03:44;;;;;;;8.30;7.60;;;23.40;99.90;;;;;;5078780;28;20224;-77
2021/07/26 16:06:11;;;;;;;6.75;6.15;;;23.40;99.90;;;;;;5056986;28;20201;-75
2021/07/26 16:08:38;;;;;;;7.63;6.30;;;23.40;99.90;;;;;;5053247;28;20216;-76
2021/07/26 16:11:05;;;;;;;7.75;6.95;;;23.40;99.90;;;;;;5059107;28;20624;-81
2021/07/26 16:13:33;;;;;;;7.32;6.43;;;23.40;99.90;;;;;;5051235;28;20687;-77
2021/07/26 16:16:00;;;;;;;8.13;7.07;;;23.40;99.90;;;;;;5045462;28;20186;-75
2021/07/26 16:18:27;;;;;;;8.80;6.65;;;23.40;99.90;;;;;;5046486;28;20737;-75
2021/07/26 16:20:54;;;;;;;11.45;8.45;;;23.50;99.90;;;;;;5043035;28;20210;-76
2021/07/26 16:23:21;;;;;;;15.25;8.90;;;23.40;99.90;;;;;;5047030;28;20304;-74
2021/07/26 16:25:48;;;;;;;8.50;7.70;;;23.20;99.90;;;;;;5045179;28;20297;-75
2021/07/26 16:28:15;;;;;;;8.38;7.35;;;23.10;99.90;;;;;;5048626;28;20257;-76
2021/07/26 16:30:45;;;;;;;11.35;8.00;;;23.00;99.90;;;;;;5042131;28;20216;-76
2021/07/26 16:33:12;;;;;;;8.40;7.68;;;23.00;99.90;;;;;;5044166;28;20201;-75
2021/07/26 16:35:39;;;;;;;7.50;6.78;;;23.00;99.90;;;;;;5041153;28;20194;-75
2021/07/26 16:38:06;;;;;;;6.60;6.00;;;23.00;99.90;;;;;;5043291;28;20660;-75
2021/07/26 16:40:33;;;;;;;5.78;5.28;;;23.00;99.90;;;;;;5044272;28;20197;-74
2021/07/26 16:43:00;;;;;;;6.05;5.55;;;23.00;99.90;;;;;;5044672;28;20859;-75
2021/07/26 16:45:27;;;;;;;6.40;5.80;;;23.10;99.90;;;;;;5044643;28;20232;-76
2021/07/26 16:47:55;;;;;;;6.15;5.15;;;23.20;99.90;;;;;;5045853;28;20554;-76
2021/07/26 16:50:23;;;;;;;6.30;5.68;;;23.30;99.90;;;;;;5042209;28;20202;-77
2021/07/26 16:52:50;;;;;;;7.43;6.63;;;23.40;99.90;;;;;;5046434;28;20526;-77
2021/07/26 16:55:17;;;;;;;7.05;6.35;;;23.40;99.90;;;;;;5042892;28;20202;-77
2021/07/26 16:57:45;;;;;;;6.70;6.10;;;23.60;99.90;;;;;;5044730;28;20189;-78
2021/07/26 17:00:13;;;;;;;6.20;5.70;;;23.60;99.90;;;;;;5042951;28;20632;-77
2021/07/26 17:02:40;;;;;;;5.93;5.40;;;23.60;99.90;;;;;;5039228;28;20230;-77
2021/07/26 17:05:09;;;;;;;6.50;5.25;;;23.70;99.90;;;;;;5035360;28;20222;-77
2021/07/26 17:07:39;;;;;;;6.20;5.60;;;23.70;99.90;;;;;;5031676;28;20225;-77
2021/07/26 17:10:07;;;;;;;5.85;5.35;;;23.80;99.90;;;;;;5060274;28;20877;-78
2021/07/26 17:12:34;;;;;;;5.70;5.28;;;23.80;99.90;;;;;;5041167;28;20325;-75
2021/07/26 17:15:01;;;;;;;7.07;5.90;;;23.80;99.90;;;;;;5040640;28;20218;-76
2021/07/26 17:17:28;;;;;;;6.28;5.70;;;23.90;99.90;;;;;;5043190;28;20713;-77
2021/07/26 17:19:55;;;;;;;5.78;5.13;;;23.90;99.90;;;;;;5039233;28;20309;-75
2021/07/26 17:22:23;;;;;;;5.72;5.22;;;23.90;99.90;;;;;;5042653;28;20896;-75
2021/07/26 17:24:50;;;;;;;7.25;6.55;;;23.90;99.90;;;;;;5044786;28;20946;-77
2021/07/26 17:27:17;;;;;;;6.10;5.60;;;24.00;99.90;;;;;;5041708;28;20209;-77
2021/07/26 17:29:44;;;;;;;6.00;5.50;;;24.00;99.90;;;;;;5046209;28;20206;-75
2021/07/26 17:32:11;;;;;;;5.70;5.20;;;24.00;99.90;;;;;;5038234;28;20509;-77
2021/07/26 17:34:38;;;;;;;6.60;5.65;;;24.10;99.90;;;;;;5037174;28;20213;-75
2021/07/26 17:37:05;;;;;;;6.50;5.90;;;24.10;99.90;;;;;;5068488;28;20540;-74
2021/07/26 17:39:33;;;;;;;5.65;5.18;;;24.10;99.90;;;;;;5044346;28;20918;-76
2021/07/26 17:42:01;;;;;;;6.20;5.60;;;24.10;99.90;;;;;;5039957;28;20201;-77
2021/07/26 17:44:28;;;;;;;6.43;5.82;;;24.10;99.90;;;;;;5041702;28;20214;-76
2021/07/26 17:46:55;;;;;;;7.75;6.07;;;24.20;99.90;;;;;;5041140;28;20293;-76
2021/07/26 17:49:22;;;;;;;7.00;6.43;;;24.20;99.90;;;;;;5043071;28;20201;-75
2021/07/26 17:51:49;;;;;;;6.80;6.20;;;24.20;99.90;;;;;;5039474;28;20292;-77
2021/07/26 17:54:19;;;;;;;7.50;6.82;;;24.10;99.90;;;;;;5042338;28;20531;-75
2021/07/26 17:56:47;;;;;;;6.82;6.22;;;24.10;99.90;;;;;;5040309;28;20285;-76
2021/07/26 17:59:14;;;;;;;6.47;5.88;;;24.10;99.90;;;;;;5041410;28;20198;-77
2021/07/26 18:01:41;;;;;;;7.75;6.07;;;24.10;99.90;;;;;;5038415;28;20204;-79
2021/07/26 18:04:08;;;;;;;6.80;6.15;;;24.10;99.90;;;;;;5030238;28;20291;-75
2021/07/26 18:06:35;;;;;;;7.05;5.68;;;24.10;99.90;;;;;;5038395;28;20248;-75
2021/07/26 18:09:02;;;;;;;7.55;6.82;;;24.10;99.90;;;;;;5041505;28;22205;-83
2021/07/26 18:11:32;;;;;;;5.93;5.43;;;24.10;99.90;;;;;;5044117;28;20304;-79
2021/07/26 18:14:02;;;;;;;6.55;5.95;;;24.10;99.90;;;;;;5042663;28;20218;-79
2021/07/26 18:16:31;;;;;;;7.07;6.30;;;24.10;99.90;;;;;;5043901;28;20213;-78
2021/07/26 18:18:58;;;;;;;6.53;5.93;;;24.10;99.90;;;;;;5042621;28;20295;-80
2021/07/26 18:21:25;;;;;;;6.55;5.95;;;24.10;99.90;;;;;;5042165;28;20222;-79
2021/07/26 18:23:53;;;;;;;9.23;7.05;;;24.00;99.90;;;;;;5043434;28;20263;-79
2021/07/26 18:26:20;;;;;;;5.82;5.32;;;24.00;99.90;;;;;;5043275;28;20429;-81
2021/07/26 18:28:47;;;;;;;6.65;5.50;;;24.00;99.90;;;;;;5045177;28;20589;-78
2021/07/26 18:31:15;;;;;;;5.60;5.20;;;24.10;99.90;;;;;;5038305;28;20206;-80
2021/07/26 18:33:42;;;;;;;5.65;5.15;;;23.90;99.90;;;;;;5042242;28;20217;-78
2021/07/26 18:36:09;;;;;;;6.00;5.60;;;23.90;99.90;;;;;;5038287;28;20196;-77
2021/07/26 18:38:36;;;;;;;6.70;6.05;;;23.90;99.90;;;;;;5045524;28;20225;-78
2021/07/26 18:41:04;;;;;;;5.82;5.32;;;23.90;99.90;;;;;;5042694;28;20229;-79
2021/07/26 18:43:31;;;;;;;7.47;6.78;;;23.90;99.90;;;;;;5042391;28;20284;-78
2021/07/26 18:46:02;;;;;;;7.30;5.72;;;23.90;99.90;;;;;;5035105;28;20202;-78
2021/07/26 18:48:31;;;;;;;6.20;5.70;;;23.90;99.90;;;;;;5042617;28;20201;-78
2021/07/26 18:50:59;;;;;;;6.18;5.60;;;23.90;99.90;;;;;;5039985;28;20571;-78
2021/07/26 18:53:26;;;;;;;6.25;5.75;;;23.90;99.90;;;;;;5042679;28;20259;-77
2021/07/26 18:55:53;;;;;;;6.20;5.65;;;23.80;99.90;;;;;;5041339;28;20317;-78
2021/07/26 18:58:20;;;;;;;5.53;5.13;;;23.80;99.90;;;;;;5041534;28;20201;-78
2021/07/26 19:00:47;;;;;;;6.20;5.70;;;23.80;99.90;;;;;;5045976;28;20962;-78
2021/07/26 19:03:14;;;;;;;6.13;5.53;;;23.80;99.90;;;;;;5040425;28;20242;-77
2021/07/26 19:05:42;;;;;;;6.53;5.95;;;23.80;99.90;;;;;;5069604;28;20208;-77
2021/07/26 19:08:09;;;;;;;7.15;6.25;;;23.70;99.90;;;;;;5039328;28;20193;-77
2021/07/26 19:10:37;;;;;;;6.70;6.10;;;23.70;99.90;;;;;;5044396;28;20274;-78
2021/07/26 19:13:04;;;;;;;6.90;6.00;;;23.70;99.90;;;;;;5039027;28;20622;-78
2021/07/26 19:15:31;;;;;;;7.07;6.38;;;23.70;99.90;;;;;;5038091;28;20213;-78
2021/07/26 19:17:58;;;;;;;6.22;5.63;;;23.70;99.90;;;;;;5044360;28;20244;-77
2021/07/26 19:20:25;;;;;;;6.63;6.03;;;23.70;99.90;;;;;;5033945;28;20190;-74
2021/07/26 19:22:53;;;;;;;6.35;5.80;;;23.70;99.90;;;;;;5041181;28;20224;-79
2021/07/26 19:25:20;;;;;;;6.20;5.70;;;23.70;99.90;;;;;;5039690;28;20202;-81
2021/07/26 19:27:49;;;;;;;6.65;6.15;;;23.60;99.90;;;;;;5037531;28;20571;-77
2021/07/26 19:30:18;;;;;;;6.53;5.95;;;23.60;99.90;;;;;;5039681;28;20190;-78
2021/07/26 19:32:45;;;;;;;5.82;5.20;;;23.60;99.90;;;;;;5035583;28;20202;-74
2021/07/26 19:35:12;;;;;;;6.50;5.90;;;23.60;99.90;;;;;;5039331;28;20709;-77
2021/07/26 19:37:39;;;;;;;7.00;6.40;;;23.60;99.90;;;;;;5035054;28;20206;-79
2021/07/26 19:40:08;;;;;;;6.45;5.85;;;23.60;99.90;;;;;;5040516;28;20273;-74
2021/07/26 19:42:35;;;;;;;7.88;6.43;;;23.60;99.90;;;;;;5070326;28;20210;-74
2021/07/26 19:45:02;;;;;;;7.25;6.55;;;23.60;99.90;;;;;;5039628;28;20210;-74
2021/07/26 19:47:29;;;;;;;7.78;7.07;;;23.60;99.90;;;;;;5041805;28;20219;-73
2021/07/26 19:49:56;;;;;;;8.05;7.30;;;23.60;99.90;;;;;;5039990;28;20194;-74
2021/07/26 19:52:25;;;;;;;7.90;7.10;;;23.50;99.90;;;;;;5036943;28;20204;-75
2021/07/26 19:54:53;;;;;;;8.77;7.20;;;23.60;99.90;;;;;;5043487;28;20221;-75
2021/07/26 19:57:21;;;;;;;8.15;7.35;;;23.50;99.90;;;;;;5044258;28;20628;-77
2021/07/26 19:59:48;;;;;;;7.88;7.13;;;23.50;99.90;;;;;;5044833;28;20229;-75
2021/07/26 20:02:15;;;;;;;13.57;7.45;;;23.50;99.90;;;;;;5049110;28;20681;-75
2021/07/26 20:04:42;;;;;;;9.75;7.22;;;23.50;99.90;;;;;;5043578;28;20218;-75
2021/07/26 20:07:09;;;;;;;7.43;6.68;;;23.50;99.90;;;;;;5045728;28;20234;-75
2021/07/26 20:09:37;;;;;;;7.53;6.82;;;23.50;99.90;;;;;;5046160;28;20301;-75
2021/07/26 20:12:04;;;;;;;8.18;7.38;;;23.50;99.90;;;;;;5043094;28;20205;-74
2021/07/26 20:14:32;;;;;;;8.75;7.20;;;23.40;99.90;;;;;;5041177;28;20237;-76
2021/07/26 20:16:59;;;;;;;11.15;7.70;;;23.50;99.90;;;;;;5041952;28;20570;-75
2021/07/26 20:19:26;;;;;;;8.93;7.57;;;23.40;99.90;;;;;;5042997;28;20565;-73
2021/07/26 20:21:53;;;;;;;9.23;7.63;;;23.40;99.90;;;;;;5040366;28;20516;-75
2021/07/26 20:24:20;;;;;;;8.00;7.20;;;23.40;99.90;;;;;;5044047;28;20213;-74
2021/07/26 20:26:47;;;;;;;9.95;8.05;;;23.40;99.90;;;;;;5040978;28;20199;-74
2021/07/26 20:29:14;;;;;;;8.02;7.30;;;23.40;99.90;;;;;;5046696;28;20650;-75
2021/07/26 20:31:43;;;;;;;7.78;7.13;;;23.40;99.90;;;;;;5042074;28;20204;-75
2021/07/26 20:34:10;;;;;;;9.45;7.80;;;23.40;99.90;;;;;;5040102;28;20658;-75
2021/07/26 20:36:37;;;;;;;8.55;7.65;;;23.40;99.90;;;;;;5043057;28;20198;-75
2021/07/26 20:39:05;;;;;;;9.00;7.13;;;23.40;99.90;;;;;;5047926;28;20656;-75
2021/07/26 20:41:32;;;;;;;8.75;7.20;;;23.40;99.90;;;;;;5072933;28;20210;-74
2021/07/26 20:43:59;;;;;;;9.68;8.77;;;23.30;99.90;;;;;;5048398;28;20284;-75
2021/07/26 20:46:26;;;;;;;9.07;8.25;;;23.30;99.90;;;;;;5046899;28;20197;-76
2021/07/26 20:48:54;;;;;;;11.05;9.32;;;23.30;99.90;;;;;;5041303;28;20208;-75
2021/07/26 20:51:21;;;;;;;9.32;8.43;;;23.30;99.90;;;;;;5045119;28;20190;-74
2021/07/26 20:53:48;;;;;;;10.35;8.35;;;23.30;99.90;;;;;;5046385;28;20194;-76
2021/07/26 20:56:15;;;;;;;9.00;8.00;;;23.20;99.90;;;;;;5047516;28;20547;-74
2021/07/26 20:58:42;;;;;;;10.48;8.60;;;23.20;99.90;;;;;;5038373;28;20206;-74
2021/07/26 21:01:10;;;;;;;8.45;7.55;;;23.20;99.90;;;;;;5042335;28;20209;-75
2021/07/26 21:03:37;;;;;;;8.40;7.60;;;23.20;99.90;;;;;;5046837;28;20302;-75
2021/07/26 21:06:05;;;;;;;7.82;7.07;;;23.20;99.90;;;;;;5043396;28;20194;-74
2021/07/26 21:08:32;;;;;;;10.35;8.88;;;23.20;99.90;;;;;;5039493;28;20198;-74
2021/07/26 21:10:59;;;;;;;9.25;8.30;;;23.20;99.90;;;;;;5042384;28;20291;-74
2021/07/26 21:13:26;;;;;;;9.85;8.85;;;23.20;99.90;;;;;;5039921;28;20198;-74
2021/07/26 21:15:56;;;;;;;10.80;8.48;;;23.20;99.90;;;;;;5046513;28;20352;-74
2021/07/26 21:18:23;;;;;;;9.63;7.43;;;23.20;99.90;;;;;;5042620;28;20203;-74
2021/07/26 21:20:50;;;;;;;8.05;7.15;;;23.20;99.90;;;;;;5040221;28;20220;-74
2021/07/26 21:23:19;;;;;;;9.20;8.02;;;23.20;99.90;;;;;;5040619;28;20210;-75
2021/07/26 21:25:46;;;;;;;7.97;7.22;;;23.20;99.90;;;;;;5045817;28;20422;-72
2021/07/26 21:28:13;;;;;;;8.63;7.78;;;23.20;99.90;;;;;;5045894;28;20605;-72
2021/07/26 21:30:42;;;;;;;12.95;7.72;;;23.20;99.90;;;;;;5075363;28;20212;-74
2021/07/26 21:33:10;;;;;;;11.07;8.35;;;23.20;99.90;;;;;;5049663;28;20212;-73
2021/07/26 21:35:37;;;;;;;8.75;7.90;;;23.30;99.90;;;;;;5078207;28;20224;-73
2021/07/26 21:38:04;;;;;;;8.50;7.60;;;23.30;99.90;;;;;;5046729;28;20202;-73
2021/07/26 21:40:32;;;;;;;8.98;8.10;;;23.30;99.90;;;;;;5041519;28;20286;-73
2021/07/26 21:42:59;;;;;;;9.90;8.70;;;23.30;99.90;;;;;;5046706;28;20198;-72
2021/07/26 21:45:26;;;;;;;9.15;8.07;;;23.30;99.90;;;;;;5041156;28;20198;-73
2021/07/26 21:47:53;;;;;;;8.40;7.47;;;23.30;99.90;;;;;;5045838;28;20233;-73
2021/07/26 21:50:20;;;;;;;8.38;7.57;;;23.40;99.90;;;;;;5039882;28;20194;-72
2021/07/26 21:52:47;;;;;;;9.20;8.20;;;23.40;99.90;;;;;;5045483;28;20286;-73
2021/07/26 21:55:15;;;;;;;8.90;8.00;;;23.40;99.90;;;;;;5042432;28;20823;-73
2021/07/26 21:57:43;;;;;;;8.85;7.95;;;23.40;99.90;;;;;;5048902;28;20213;-73
2021/07/26 22:00:12;;;;;;;11.68;9.77;;;23.40;99.90;;;;;;5048086;28;20604;-73
2021/07/26 22:02:43;;;;;;;13.85;11.75;;;23.40;99.90;;;;;;5041247;28;20241;-71
2021/07/26 22:05:10;;;;;;;11.02;9.68;;;23.30;99.90;;;;;;5046973;28;20194;-73
2021/07/26 22:07:37;;;;;;;10.82;8.77;;;23.20;99.90;;;;;;5043711;28;20585;-73
2021/07/26 22:10:05;;;;;;;11.05;8.82;;;23.20;99.90;;;;;;5042894;28;20522;-73
2021/07/26 22:12:32;;;;;;;11.85;8.70;;;23.20;99.90;;;;;;5047011;28;20198;-73
2021/07/26 22:15:00;;;;;;;10.63;8.15;;;23.20;99.90;;;;;;5047183;28;20217;-73
2021/07/26 22:17:28;;;;;;;11.35;8.68;;;23.20;99.90;;;;;;5048330;28;20201;-73
2021/07/26 22:19:55;;;;;;;9.75;8.52;;;23.20;99.90;;;;;;5048119;28;20206;-73
2021/07/26 22:22:22;;;;;;;11.13;8.98;;;23.20;99.90;;;;;;5040266;28;20238;-73
2021/07/26 22:24:49;;;;;;;8.48;7.57;;;23.20;99.90;;;;;;5047843;28;20208;-73
2021/07/26 22:27:16;;;;;;;9.18;8.27;;;23.20;99.90;;;;;;5045102;28;20205;-73
2021/07/26 22:29:43;;;;;;;9.77;8.77;;;23.20;99.90;;;;;;5049237;28;20221;-73
2021/07/26 22:32:12;;;;;;;9.60;7.80;;;23.20;99.90;;;;;;5069764;28;20241;-72
2021/07/26 22:34:39;;;;;;;9.45;8.48;;;23.20;99.90;;;;;;5075532;28;20205;-74
2021/07/26 22:37:06;;;;;;;9.65;8.68;;;23.20;99.90;;;;;;5044813;28;20190;-74
2021/07/26 22:39:35;;;;;;;11.88;8.35;;;23.20;99.90;;;;;;5047540;28;20224;-73
2021/07/26 22:42:02;;;;;;;9.57;8.13;;;23.20;99.90;;;;;;5048559;28;20296;-72
2021/07/26 22:44:30;;;;;;;9.82;7.57;;;23.20;99.90;;;;;;5049007;28;20193;-74
2021/07/26 22:46:59;;;;;;;10.25;8.88;;;23.20;99.90;;;;;;5065417;28;20218;-74
2021/07/26 22:49:28;;;;;;;9.18;8.00;;;23.20;99.90;;;;;;5040825;28;20565;-74
2021/07/26 22:51:55;;;;;;;10.25;8.15;;;23.20;99.90;;;;;;5043348;28;20194;-74
2021/07/26 22:54:22;;;;;;;17.95;8.70;;;23.20;99.90;;;;;;5049141;28;20198;-72
2021/07/26 22:56:49;;;;;;;9.13;8.23;;;23.20;99.90;;;;;;5045781;28;20217;-73
2021/07/26 22:59:16;;;;;;;10.73;8.20;;;23.20;99.90;;;;;;5047569;28;20209;-73
2021/07/26 23:01:42;;;;;;;9.38;8.38;;;23.20;99.90;;;;;;5047133;28;20219;-73
2021/07/26 23:04:10;;;;;;;10.68;9.60;;;23.20;99.90;;;;;;5042425;28;20233;-72
2021/07/26 23:06:38;;;;;;;10.65;9.50;;;23.10;99.90;;;;;;5046755;28;20190;-73
2021/07/26 23:09:05;;;;;;;10.45;9.02;;;23.10;99.90;;;;;;5047685;28;20221;-73
2021/07/26 23:11:32;;;;;;;12.43;9.23;;;23.10;99.90;;;;;;5041260;28;20206;-73
2021/07/26 23:14:05;;;;;;;9.23;8.40;;;23.10;99.90;;;;;;5048403;28;20589;-73
2021/07/26 23:16:32;;;;;;;9.15;8.25;;;23.00;99.90;;;;;;5045699;28;20271;-73
2021/07/26 23:18:59;;;;;;;9.52;8.48;;;23.00;99.90;;;;;;5047958;28;20201;-73
2021/07/26 23:21:26;;;;;;;11.77;8.70;;;23.00;99.90;;;;;;5043378;28;20658;-73
2021/07/26 23:23:54;;;;;;;8.95;8.05;;;23.00;99.90;;;;;;5047799;28;20249;-73
2021/07/26 23:26:22;;;;;;;9.45;7.95;;;23.00;99.90;;;;;;5040254;28;20202;-73
2021/07/26 23:28:49;;;;;;;10.13;8.88;;;23.00;99.90;;;;;;5048110;28;20646;-73
2021/07/26 23:31:16;;;;;;;9.77;8.77;;;23.00;99.90;;;;;;5051938;28;20197;-73
2021/07/26 23:33:42;;;;;;;9.60;8.68;;;23.00;99.90;;;;;;5049441;28;20705;-73
2021/07/26 23:36:09;;;;;;;15.05;9.50;;;22.90;99.90;;;;;;5049146;28;20567;-73
2021/07/26 23:38:36;;;;;;;9.38;8.25;;;22.80;99.90;;;;;;5050557;28;20221;-73
2021/07/26 23:41:05;;;;;;;9.20;8.23;;;22.80;99.90;;;;;;5050508;28;20308;-73
2021/07/26 23:43:32;;;;;;;13.90;9.43;;;22.80;99.90;;;;;;5050621;28;20205;-73
2021/07/26 23:45:59;;;;;;;12.80;9.00;;;22.80;99.90;;;;;;5051462;28;20272;-73
2021/07/26 23:48:26;;;;;;;11.25;9.25;;;22.80;99.90;;;;;;5048507;28;20202;-72
2021/07/26 23:50:53;;;;;;;8.77;7.90;;;22.70;99.90;;;;;;5042512;28;20205;-72
2021/07/26 23:53:20;;;;;;;9.73;8.73;;;22.70;99.90;;;;;;5050402;28;20557;-72
2021/07/26 23:55:48;;;;;;;11.48;8.70;;;22.60;99.90;;;;;;5050177;28;20232;-72
2021/07/26 23:58:16;;;;;;;9.05;8.02;;;22.60;99.90;;;;;;5051223;28;20194;-72
